Strona główna
METAR-TAF:

METAR-TAF

Lotnisko :

Lossiemouth, Szkocja

Szerokość geograficzna: 57-43N, Długość geograficzna: 003-19W, wysokość: 13 m

Aktualna obserwacja pogody

Raport powstał 19 minut temu, godzina 05:50 UTC
Cisza
Temperatura 12°C
Wilgotność 82%
Ciśnienie 1026 hPa
Widzialność 10 km lub więcej
Brak chmur poniżej 1500 m i brak chmur cumulonimbus

METAR: EGQS 010550Z 00000KT CAVOK 12/09 Q1026 NOSIG RMK BLU BLU

czas: 07:09 (06:09 UTC)

Prognoza

Raport powstał 2 godziny i 2 minut temu, godzina 04:07 UTC
Prognoza ważna od 01 godzina 06 UTC do 01 godzina 24 UTC
Wiatr 5 kt z kierunków zmiennych
Widzialność 10 km lub więcej
Brak chmur poniżej 1500 m i brak chmur cumulonimbus

TAF: EGQS 010407Z 0106/0124 VRB05KT CAVOK

Obserwacja i prognoza pogody dla ponad 4000 lotnisk (raport METAR i TAF).

Dostępne stacje oznaczono żółtymi i czerwonymi punktami na mapie.

Najedź kursorem aby zobaczyć nazwę stacji.

Kliknij aby zobaczyć obserwacje i prognozy pogody.

Aby zmienić mapę: kliknij na zielony przycisk z czarnym krzyżykiem, aby powiększyć; na zielony przycisk z myślnikiem, aby pomniejszyć; na zielone strzałki, aby przejść do map sąsiednich.


METAR-TAF: